createdAt,value
2018-04-28T00:01:04.485Z,9.00
2018-04-28T00:03:31.936Z,8.13
2018-04-28T00:05:59.490Z,8.60
2018-04-28T00:08:30.923Z,9.00
2018-04-28T00:10:58.466Z,7.90
2018-04-28T00:13:26.027Z,8.40
2018-04-28T00:15:53.558Z,8.30
2018-04-28T00:18:24.666Z,7.80
2018-04-28T00:20:52.187Z,8.03
2018-04-28T00:23:19.703Z,8.43
2018-04-28T00:25:58.133Z,7.93
2018-04-28T00:28:48.388Z,8.67
2018-04-28T00:31:37.532Z,9.13
2018-04-28T00:34:16.892Z,9.30
2018-04-28T00:40:03.207Z,9.10
2018-04-28T00:42:35.646Z,8.83
2018-04-28T00:45:05.157Z,8.93
2018-04-28T00:47:32.660Z,10.10
2018-04-28T00:50:02.984Z,8.93
2018-04-28T00:52:30.581Z,9.30
2018-04-28T00:55:17.639Z,10.10
2018-04-28T01:01:06.641Z,9.93
2018-04-28T01:03:35.898Z,9.40
2018-04-28T01:06:03.397Z,9.47
2018-04-28T01:08:30.973Z,10.67
2018-04-28T01:11:04.373Z,10.03
2018-04-28T01:16:27.127Z,10.77
2018-04-28T01:18:56.573Z,9.93
2018-04-28T01:21:42.748Z,9.67
2018-04-28T01:27:33.095Z,10.23
2018-04-28T01:33:10.120Z,12.20
2018-04-28T01:38:43.093Z,12.40
2018-04-28T01:41:36.167Z,10.73
2018-04-28T01:44:09.453Z,11.53
2018-04-28T01:46:56.392Z,11.70
2018-04-28T01:52:28.380Z,11.00
2018-04-28T01:55:02.661Z,11.67
2018-04-28T01:57:40.108Z,11.37
2018-04-28T02:00:16.050Z,11.37
2018-04-28T02:02:46.306Z,12.67
2018-04-28T02:08:11.678Z,12.13
2018-04-28T02:10:46.526Z,12.03
2018-04-28T02:13:14.804Z,13.17
2018-04-28T02:15:45.177Z,12.40
2018-04-28T02:18:16.246Z,13.43
2018-04-28T02:20:55.506Z,12.63
2018-04-28T02:23:43.682Z,12.77
2018-04-28T02:29:41.258Z,13.33
2018-04-28T02:32:12.504Z,12.13
2018-04-28T02:37:47.137Z,12.93
2018-04-28T02:40:34.386Z,12.63
2018-04-28T02:43:02.044Z,12.83
2018-04-28T02:45:33.335Z,13.43
2018-04-28T02:48:04.710Z,14.80
2018-04-28T02:50:32.204Z,13.27
2018-04-28T02:53:11.662Z,13.90
2018-04-28T02:55:48.998Z,12.53
2018-04-28T02:58:18.021Z,13.30
2018-04-28T03:03:49.514Z,12.50
2018-04-28T03:06:27.723Z,13.47
2018-04-28T03:08:55.257Z,12.40
2018-04-28T03:11:22.791Z,12.53
2018-04-28T03:13:52.006Z,12.97
2018-04-28T03:16:30.113Z,13.67
2018-04-28T03:19:12.486Z,14.07
2018-04-28T03:21:49.194Z,14.87
2018-04-28T03:24:23.055Z,14.20
2018-04-28T03:27:03.669Z,13.67
2018-04-28T03:29:34.110Z,14.17
2018-04-28T03:32:01.612Z,13.80
2018-04-28T03:34:33.652Z,14.80
2018-04-28T03:40:16.880Z,12.93
2018-04-28T03:42:46.206Z,13.97
2018-04-28T03:45:13.736Z,15.40
2018-04-28T03:50:37.768Z,16.20
2018-04-28T03:53:23.822Z,15.17
2018-04-28T03:56:07.900Z,15.10
2018-04-28T03:58:47.237Z,14.50
2018-04-28T04:01:26.555Z,14.57
2018-04-28T04:04:01.088Z,13.87
2018-04-28T04:06:43.488Z,15.37
2018-04-28T04:09:12.729Z,15.30
2018-04-28T04:14:49.917Z,16.47
2018-04-28T04:20:53.540Z,14.67
2018-04-28T04:23:28.777Z,14.30
2018-04-28T04:29:18.541Z,14.67
2018-04-28T04:31:55.762Z,14.20
2018-04-28T04:34:45.783Z,14.40
2018-04-28T04:37:27.797Z,14.20
2018-04-28T04:40:01.149Z,14.67
2018-04-28T04:42:31.219Z,13.63
2018-04-28T04:45:03.378Z,13.83
2018-04-28T04:47:38.553Z,14.77
2018-04-28T04:50:12.003Z,14.23
2018-04-28T04:52:43.373Z,14.37
2018-04-28T04:58:32.748Z,14.13
2018-04-28T05:01:15.963Z,12.73
2018-04-28T05:07:11.429Z,14.97
2018-04-28T05:13:06.378Z,14.40
2018-04-28T05:15:44.530Z,14.07
2018-04-28T05:18:24.676Z,14.23
2018-04-28T05:21:04.008Z,13.93
2018-04-28T05:26:57.495Z,13.70
2018-04-28T05:29:47.406Z,13.70
2018-04-28T05:38:45.467Z,14.50
2018-04-28T05:41:20.763Z,13.90
2018-04-28T05:46:52.833Z,14.67
2018-04-28T05:49:28.126Z,14.63
2018-04-28T05:51:58.418Z,14.57
2018-04-28T05:54:43.690Z,14.13
2018-04-28T05:57:17.827Z,13.73
2018-04-28T06:03:08.882Z,13.20
2018-04-28T06:05:38.987Z,13.63
2018-04-28T06:11:46.486Z,13.40
2018-04-28T06:14:25.726Z,13.80
2018-04-28T06:17:00.130Z,13.90
2018-04-28T06:22:32.502Z,14.23
2018-04-28T06:25:00.027Z,13.93
2018-04-28T06:27:27.558Z,15.47
2018-04-28T06:29:55.068Z,14.97
2018-04-28T06:32:22.587Z,15.70
2018-04-28T06:34:50.087Z,16.00
2018-04-28T06:37:17.597Z,15.80
2018-04-28T06:39:45.131Z,14.97
2018-04-28T06:42:12.632Z,14.20
2018-04-28T06:44:40.173Z,14.73
2018-04-28T06:47:07.717Z,14.40
2018-04-28T06:49:35.243Z,14.60
2018-04-28T06:52:02.782Z,14.50
2018-04-28T06:54:30.288Z,13.33
2018-04-28T06:56:57.801Z,13.37
2018-04-28T06:59:25.324Z,13.50
2018-04-28T07:01:52.869Z,13.80
2018-04-28T07:04:20.454Z,13.33
2018-04-28T07:06:47.993Z,13.13
2018-04-28T07:09:15.503Z,13.90
2018-04-28T07:11:43.031Z,12.80
2018-04-28T07:16:44.304Z,13.10
2018-04-28T07:19:11.796Z,12.73
2018-04-28T07:21:39.320Z,13.20
2018-04-28T07:24:06.847Z,13.13
2018-04-28T07:26:34.381Z,12.63
2018-04-28T07:29:01.890Z,13.57
2018-04-28T07:31:29.400Z,12.10
2018-04-28T07:33:56.909Z,13.50
2018-04-28T07:36:24.422Z,12.90
2018-04-28T07:38:51.916Z,11.80
2018-04-28T07:41:19.409Z,11.93
2018-04-28T07:43:46.940Z,12.10
2018-04-28T07:46:14.467Z,13.57
2018-04-28T07:48:42.015Z,12.60
2018-04-28T07:51:09.535Z,12.53
2018-04-28T07:53:37.061Z,12.40
2018-04-28T07:56:04.569Z,12.10
2018-04-28T07:58:32.060Z,12.80
2018-04-28T08:00:59.579Z,12.57
2018-04-28T08:03:27.117Z,13.83
2018-04-28T08:18:56.602Z,12.93
2018-04-28T08:21:24.151Z,13.70
2018-04-28T08:23:51.665Z,15.30
2018-04-28T08:26:19.200Z,12.93
2018-04-28T08:28:46.709Z,14.73
2018-04-28T08:31:14.226Z,13.63
2018-04-28T08:33:41.740Z,13.37
2018-04-28T08:36:09.275Z,14.10
2018-04-28T08:38:36.814Z,13.07
2018-04-28T08:41:04.335Z,13.60
2018-04-28T08:43:31.853Z,14.10
2018-04-28T08:45:59.346Z,12.90
2018-04-28T08:48:26.842Z,13.43
2018-04-28T08:50:54.351Z,12.93
2018-04-28T08:53:21.882Z,12.17
2018-04-28T08:55:49.363Z,13.10
2018-04-28T08:58:17.138Z,13.13
2018-04-28T09:01:03.455Z,13.53
2018-04-28T09:03:30.997Z,13.30
2018-04-28T09:05:58.502Z,12.23
2018-04-28T09:08:26.021Z,12.10
2018-04-28T09:10:53.524Z,12.37
2018-04-28T09:13:21.040Z,13.40
2018-04-28T09:15:48.573Z,13.00
2018-04-28T09:18:16.063Z,13.27
2018-04-28T09:20:43.552Z,12.73
2018-04-28T09:23:11.119Z,12.77
2018-04-28T09:25:38.623Z,13.27
2018-04-28T09:28:06.117Z,11.53
2018-04-28T09:30:33.662Z,11.60
2018-04-28T09:33:01.228Z,11.20
2018-04-28T09:35:28.768Z,11.57
2018-04-28T09:37:56.290Z,11.00
2018-04-28T09:40:23.841Z,11.40
2018-04-28T09:42:51.436Z,12.60
2018-04-28T09:45:18.999Z,12.63
2018-04-28T09:47:46.579Z,11.00
2018-04-28T09:50:14.219Z,11.10
2018-04-28T09:52:41.781Z,12.17
2018-04-28T09:55:09.286Z,11.80
2018-04-28T09:57:36.807Z,11.30
2018-04-28T10:00:16.245Z,11.43
2018-04-28T10:02:43.803Z,10.23
2018-04-28T10:05:11.378Z,11.40
2018-04-28T10:07:38.967Z,11.80
2018-04-28T10:10:06.561Z,10.63
2018-04-28T10:12:34.089Z,12.33
2018-04-28T10:15:01.639Z,11.23
2018-04-28T10:17:29.220Z,11.37
2018-04-28T10:19:56.750Z,11.90
2018-04-28T10:22:24.331Z,11.70
2018-04-28T10:24:51.878Z,10.80
2018-04-28T10:27:19.470Z,10.30
2018-04-28T10:29:46.971Z,9.53
2018-04-28T10:32:14.450Z,9.20
2018-04-28T10:34:58.866Z,10.00
2018-04-28T10:37:26.435Z,6.80
2018-04-28T10:39:53.923Z,8.43
2018-04-28T10:42:21.380Z,8.43
2018-04-28T10:44:48.915Z,7.40
2018-04-28T10:47:16.434Z,7.67
2018-04-28T10:49:43.972Z,7.47
2018-04-28T10:52:11.492Z,8.17
2018-04-28T10:54:39.019Z,7.90
2018-04-28T10:57:06.545Z,8.00
2018-04-28T10:59:34.035Z,7.50
2018-04-28T11:02:01.548Z,7.00
2018-04-28T11:04:29.192Z,6.30
2018-04-28T11:06:56.733Z,7.03
2018-04-28T11:09:24.230Z,6.10
2018-04-28T11:11:51.770Z,5.60
2018-04-28T11:14:19.257Z,5.10
2018-04-28T11:16:46.753Z,6.70
2018-04-28T11:19:14.241Z,6.00
2018-04-28T11:21:41.736Z,5.90
2018-04-28T11:24:09.256Z,5.50
2018-04-28T11:26:36.773Z,6.30
2018-04-28T11:29:04.302Z,6.17
2018-04-28T11:31:31.829Z,5.50
2018-04-28T11:33:59.345Z,5.50
2018-04-28T11:36:26.880Z,5.37
2018-04-28T11:38:54.512Z,5.97
2018-04-28T11:41:22.091Z,6.07
2018-04-28T11:43:50.511Z,4.93
2018-04-28T11:46:18.192Z,5.20
2018-04-28T11:48:45.696Z,5.17
2018-04-28T11:51:13.241Z,5.20
2018-04-28T11:53:40.798Z,5.90
2018-04-28T11:56:08.372Z,4.63
2018-04-28T11:58:35.842Z,4.90
2018-04-28T12:01:03.341Z,5.40
2018-04-28T12:03:30.846Z,4.80
2018-04-28T12:05:58.334Z,5.13
2018-04-28T12:08:25.842Z,4.80
2018-04-28T12:10:53.342Z,5.20
2018-04-28T12:13:20.876Z,4.30
2018-04-28T12:15:48.367Z,5.00
2018-04-28T12:18:15.859Z,4.80
2018-04-28T12:20:43.367Z,4.40
2018-04-28T12:23:10.846Z,4.80
2018-04-28T12:25:38.328Z,4.90
2018-04-28T12:28:05.839Z,4.13
2018-04-28T12:30:33.407Z,5.10
2018-04-28T12:33:01.025Z,4.80
2018-04-28T12:35:28.523Z,4.80
2018-04-28T12:37:56.023Z,4.10
2018-04-28T12:40:23.563Z,4.43
2018-04-28T12:42:51.103Z,4.63
2018-04-28T12:45:18.596Z,4.20
2018-04-28T12:47:46.095Z,4.60
2018-04-28T12:50:13.579Z,4.17
2018-04-28T12:52:41.053Z,6.30
2018-04-28T12:55:08.561Z,4.90
2018-04-28T12:57:36.054Z,4.57
2018-04-28T13:00:03.713Z,5.03
2018-04-28T13:02:31.206Z,4.63
2018-04-28T13:04:58.706Z,5.00
2018-04-28T13:07:26.192Z,5.80
2018-04-28T13:09:53.659Z,5.53
2018-04-28T13:12:21.141Z,5.20
2018-04-28T13:14:48.641Z,5.27
2018-04-28T13:17:16.146Z,4.80
2018-04-28T13:19:43.654Z,4.50
2018-04-28T13:22:11.190Z,4.43
2018-04-28T13:24:38.726Z,4.83
2018-04-28T13:27:06.242Z,4.90
2018-04-28T13:29:33.770Z,5.27
2018-04-28T13:32:01.280Z,4.97
2018-04-28T13:34:28.767Z,5.10
2018-04-28T13:36:56.703Z,5.80
2018-04-28T13:39:24.252Z,4.93
2018-04-28T13:41:51.726Z,4.87
2018-04-28T13:44:19.314Z,4.80
2018-04-28T13:46:46.818Z,5.30
2018-04-28T13:49:14.323Z,4.73
2018-04-28T13:51:41.816Z,5.20
2018-04-28T13:54:09.318Z,5.60
2018-04-28T13:56:36.801Z,5.50
2018-04-28T13:59:04.319Z,5.07
2018-04-28T14:01:31.824Z,5.03
2018-04-28T14:03:59.329Z,5.40
2018-04-28T14:06:26.861Z,4.97
2018-04-28T14:08:55.013Z,5.40
2018-04-28T14:11:23.390Z,5.40
2018-04-28T14:13:50.925Z,5.33
2018-04-28T14:16:18.434Z,5.03
2018-04-28T14:18:45.955Z,4.70
2018-04-28T14:21:13.428Z,4.67
2018-04-28T14:23:41.005Z,4.90
2018-04-28T14:26:08.603Z,4.97
2018-04-28T14:28:36.102Z,5.37
2018-04-28T14:31:03.605Z,5.07
2018-04-28T14:33:31.146Z,5.37
2018-04-28T14:35:58.643Z,4.73
2018-04-28T14:38:26.146Z,4.10
2018-04-28T14:40:53.660Z,4.97
2018-04-28T14:43:21.145Z,4.10
2018-04-28T14:45:48.618Z,4.40
2018-04-28T14:48:16.106Z,4.40
2018-04-28T14:50:43.598Z,4.80
2018-04-28T14:53:11.058Z,4.80
2018-04-28T14:55:38.541Z,4.20
2018-04-28T14:58:06.047Z,4.82
2018-04-28T15:00:33.555Z,4.37
2018-04-28T15:03:01.067Z,4.78
2018-04-28T15:05:28.559Z,4.35
2018-04-28T15:07:56.046Z,4.45
2018-04-28T15:10:23.547Z,4.83
2018-04-28T15:12:51.011Z,4.87
2018-04-28T15:15:18.493Z,4.90
2018-04-28T15:17:45.981Z,4.97
2018-04-28T15:20:13.475Z,5.13
2018-04-28T15:22:40.979Z,4.95
2018-04-28T15:25:08.500Z,5.10
2018-04-28T15:27:35.996Z,5.13
2018-04-28T15:30:03.479Z,4.80
2018-04-28T15:32:30.970Z,5.43
2018-04-28T15:34:58.559Z,5.40
2018-04-28T15:37:25.958Z,5.23
2018-04-28T15:39:53.439Z,5.20
2018-04-28T15:42:20.906Z,5.00
2018-04-28T15:44:48.415Z,5.37
2018-04-28T15:47:15.916Z,5.40
2018-04-28T15:49:43.400Z,5.50
2018-04-28T15:52:10.892Z,5.60
2018-04-28T15:54:38.400Z,5.90
2018-04-28T15:57:06.014Z,6.00
2018-04-28T15:59:33.530Z,5.70
2018-04-28T16:02:01.015Z,5.60
2018-04-28T16:04:28.494Z,4.67
2018-04-28T16:06:55.966Z,6.00
2018-04-28T16:09:23.497Z,6.07
2018-04-28T16:11:50.954Z,6.30
2018-04-28T16:14:18.466Z,5.47
2018-04-28T16:16:45.923Z,5.93
2018-04-28T16:19:13.394Z,6.73
2018-04-28T16:21:40.884Z,5.67
2018-04-28T16:24:08.406Z,5.57
2018-04-28T16:26:35.873Z,5.83
2018-04-28T16:29:03.396Z,5.40
2018-04-28T16:31:30.945Z,6.03
2018-04-28T16:33:58.431Z,5.63
2018-04-28T16:36:25.915Z,5.70
2018-04-28T16:38:53.378Z,7.77
2018-04-28T16:41:20.852Z,6.63
2018-04-28T16:43:48.342Z,6.87
2018-04-28T16:46:15.804Z,7.07
2018-04-28T16:48:43.337Z,6.60
2018-04-28T16:51:10.843Z,7.40
2018-04-28T16:53:38.367Z,7.13
2018-04-28T16:56:05.869Z,6.90
2018-04-28T16:58:33.403Z,6.60
2018-04-28T17:01:01.319Z,7.30
2018-04-28T17:03:28.821Z,6.67
2018-04-28T17:05:56.314Z,6.47
2018-04-28T17:08:23.812Z,7.00
2018-04-28T17:10:51.796Z,6.80
2018-04-28T17:13:19.295Z,7.10
2018-04-28T17:15:46.797Z,6.93
2018-04-28T17:18:14.282Z,7.37
2018-04-28T17:20:41.772Z,6.13
2018-04-28T17:23:09.264Z,7.97
2018-04-28T17:25:36.755Z,7.40
2018-04-28T17:28:04.301Z,6.67
2018-04-28T17:30:31.828Z,6.63
2018-04-28T17:32:59.301Z,7.30
2018-04-28T17:35:26.796Z,6.93
2018-04-28T17:37:54.272Z,7.77
2018-04-28T17:40:21.775Z,7.43
2018-04-28T17:42:49.352Z,7.27
2018-04-28T17:45:16.774Z,7.80
2018-04-28T17:47:44.250Z,7.57
2018-04-28T17:50:11.852Z,7.73
2018-04-28T17:52:39.263Z,9.20
2018-04-28T17:55:06.750Z,7.33
2018-04-28T17:57:34.212Z,7.60
2018-04-28T18:00:01.706Z,8.17
2018-04-28T18:02:29.199Z,8.00
2018-04-28T18:04:56.729Z,7.57
2018-04-28T18:07:24.702Z,8.17
2018-04-28T18:09:52.172Z,8.17
2018-04-28T18:12:19.686Z,8.13
2018-04-28T18:14:47.170Z,8.73
2018-04-28T18:17:14.673Z,7.43
2018-04-28T18:19:42.198Z,8.90
2018-04-28T18:22:09.768Z,8.37
2018-04-28T18:24:37.275Z,7.77
2018-04-28T18:27:04.815Z,8.10
2018-04-28T18:29:32.311Z,9.67
2018-04-28T18:31:59.803Z,8.93
2018-04-28T18:34:27.295Z,8.87
2018-04-28T18:36:54.785Z,8.87
2018-04-28T18:39:22.288Z,9.20
2018-04-28T18:41:50.140Z,9.20
2018-04-28T18:44:17.634Z,8.47
2018-04-28T18:46:45.142Z,9.60
2018-04-28T18:49:12.723Z,8.47
2018-04-28T18:51:40.229Z,8.80
2018-04-28T18:54:07.727Z,8.60
2018-04-28T18:56:35.282Z,9.43
2018-04-28T18:59:02.760Z,8.80
2018-04-28T19:01:30.264Z,9.10
2018-04-28T19:03:57.735Z,8.90
2018-04-28T19:06:25.239Z,8.93
2018-04-28T19:08:52.790Z,9.00
2018-04-28T19:11:20.271Z,8.90
2018-04-28T19:13:47.760Z,9.30
2018-04-28T19:16:15.279Z,8.67
2018-04-28T19:18:42.786Z,8.50
2018-04-28T19:21:10.280Z,9.97
2018-04-28T19:23:37.791Z,9.87
2018-04-28T19:26:05.303Z,9.43
2018-04-28T19:28:32.804Z,9.83
2018-04-28T19:31:00.292Z,8.50
2018-04-28T19:33:27.773Z,8.87
2018-04-28T19:35:55.280Z,9.87
2018-04-28T19:38:22.771Z,9.90
2018-04-28T19:40:51.716Z,9.57
2018-04-28T19:43:19.222Z,9.50
2018-04-28T19:45:46.733Z,9.73
2018-04-28T19:48:14.263Z,8.70
2018-04-28T19:50:41.778Z,9.80
2018-04-28T19:53:09.337Z,9.93
2018-04-28T19:55:36.862Z,9.50
2018-04-28T19:58:04.347Z,9.20
2018-04-28T20:00:31.919Z,9.73
2018-04-28T20:02:59.439Z,9.77
2018-04-28T20:05:26.935Z,9.50
2018-04-28T20:07:54.456Z,9.47
2018-04-28T20:10:21.978Z,9.40
2018-04-28T20:12:49.469Z,9.90
2018-04-28T20:15:16.968Z,9.60
2018-04-28T20:17:44.523Z,9.93
2018-04-28T20:20:12.016Z,10.07
2018-04-28T20:22:51.155Z,10.23
2018-04-28T20:25:23.702Z,9.50
2018-04-28T20:27:51.202Z,10.73
2018-04-28T20:30:18.905Z,10.07
2018-04-28T20:32:46.322Z,10.23
2018-04-28T20:35:13.815Z,9.30
2018-04-28T20:37:41.326Z,8.93
2018-04-28T20:40:08.831Z,9.60
2018-04-28T20:42:36.343Z,9.97
2018-04-28T20:45:03.854Z,10.50
2018-04-28T20:47:31.343Z,10.13
2018-04-28T20:49:58.910Z,10.17
2018-04-28T20:52:26.429Z,9.80
2018-04-28T20:54:53.970Z,10.13
2018-04-28T20:57:21.462Z,10.33
2018-04-28T20:59:48.963Z,9.00
2018-04-28T21:02:16.547Z,10.30
2018-04-28T21:04:44.039Z,8.90
2018-04-28T21:07:11.531Z,9.33
2018-04-28T21:09:39.054Z,9.40
2018-04-28T21:12:06.617Z,9.83
2018-04-28T21:14:34.109Z,9.30
2018-04-28T21:17:01.596Z,9.70
2018-04-28T21:19:29.133Z,9.93
2018-04-28T21:21:56.630Z,9.20
2018-04-28T21:24:24.141Z,10.27
2018-04-28T21:26:51.647Z,8.93
2018-04-28T21:29:19.167Z,10.43
2018-04-28T21:31:46.660Z,10.07
2018-04-28T21:34:14.157Z,9.73
2018-04-28T21:36:41.660Z,9.53
2018-04-28T21:39:09.879Z,10.00
2018-04-28T21:41:37.458Z,10.23
2018-04-28T21:44:05.011Z,9.63
2018-04-28T21:46:32.541Z,9.60
2018-04-28T21:48:59.978Z,9.63
2018-04-28T21:51:27.454Z,8.83
2018-04-28T21:53:54.995Z,10.10
2018-04-28T21:56:22.538Z,9.27
2018-04-28T21:58:50.406Z,9.77
2018-04-28T22:01:17.880Z,9.53
2018-04-28T22:03:45.367Z,9.50
2018-04-28T22:06:12.866Z,10.10
2018-04-28T22:08:40.370Z,9.00
2018-04-28T22:11:07.914Z,9.70
2018-04-28T22:13:35.414Z,10.10
2018-04-28T22:16:02.922Z,9.40
2018-04-28T22:18:30.418Z,9.30
2018-04-28T22:20:57.982Z,9.20
2018-04-28T22:23:25.528Z,10.03
2018-04-28T22:25:53.006Z,9.97
2018-04-28T22:28:20.507Z,9.50
2018-04-28T22:30:48.036Z,9.43
2018-04-28T22:33:15.776Z,10.63
2018-04-28T22:35:43.252Z,10.97
2018-04-28T22:38:10.834Z,10.40
2018-04-28T22:40:38.338Z,9.67
2018-04-28T22:43:05.865Z,9.37
2018-04-28T22:45:33.390Z,9.40
2018-04-28T22:48:00.951Z,9.50
2018-04-28T22:50:28.452Z,9.23
2018-04-28T22:52:55.955Z,9.33
2018-04-28T22:55:23.523Z,9.50
2018-04-28T22:57:51.019Z,9.23
2018-04-28T23:00:21.390Z,9.83
2018-04-28T23:02:48.913Z,9.10
2018-04-28T23:05:16.412Z,9.10
2018-04-28T23:07:43.931Z,8.47
2018-04-28T23:10:11.544Z,9.20
2018-04-28T23:12:39.102Z,8.77
2018-04-28T23:15:06.632Z,8.73
2018-04-28T23:17:34.113Z,9.40
2018-04-28T23:20:01.731Z,8.67
2018-04-28T23:22:29.385Z,8.43
2018-04-28T23:24:56.890Z,8.60
2018-04-28T23:27:24.359Z,8.70
2018-04-28T23:29:51.862Z,8.20
2018-04-28T23:32:19.358Z,8.87
2018-04-28T23:34:46.998Z,8.40
2018-04-28T23:37:14.538Z,8.47
2018-04-28T23:39:42.048Z,8.30
2018-04-28T23:42:09.560Z,7.87
2018-04-28T23:44:37.120Z,7.80
2018-04-28T23:47:04.635Z,7.43
2018-04-28T23:49:32.132Z,8.03
2018-04-28T23:51:59.633Z,7.60
2018-04-28T23:54:27.222Z,7.47
2018-04-28T23:56:54.740Z,7.07
2018-04-28T23:59:22.265Z,6.93
